SCA weather

Sidney Municipal Airport
Sidney, Ohio, United States

Public forecast

Using degrees Fahrenheit for public forecast. Weather courtesy of forecast.io.

Closest aviation weather report (METAR) to Sidney Municipal Airport

Closest report is Neil Armstrong Airport, 16.6 nm (30.7 km) NNW. Retrieved 2020/06/03 15:55 UTC (12 minutes ago):

KAXV 031555Z AUTO 30009KT 7SM CLR 27/17 A2986 RMK AO2

Closest aviation forecast (TAF) to Sidney Municipal Airport

Closest forecast is James M Cox Dayton International Airport, 20.6 nm (38.1 km) S. Retrieved 2020/06/03 12:36 UTC (4 hours ago):

TAF KDAY 031135Z 0312/0412 23012KT P6SM SKC FM031400 24012G22KT P6SM SCT035 SCT120 FM032100 27014KT P6SM VCSH BKN040 FM040000 24009KT P6SM -SHRA VCTS BKN035CB FM040700 22006KT P6SM VCSH BKN035